createdAt,value
2017-09-23T00:01:37.184Z,8.20
2017-09-23T00:04:05.460Z,5.00
2017-09-23T00:06:33.613Z,7.30
2017-09-23T00:09:02.622Z,8.40
2017-09-23T00:11:30.764Z,7.20
2017-09-23T00:13:59.685Z,7.20
2017-09-23T00:16:27.938Z,6.77
2017-09-23T00:18:56.836Z,6.80
2017-09-23T00:21:24.985Z,6.07
2017-09-23T00:23:53.969Z,5.40
2017-09-23T00:26:22.105Z,6.07
2017-09-23T00:28:50.262Z,6.40
2017-09-23T00:31:18.383Z,6.70
2017-09-23T00:33:46.553Z,6.63
2017-09-23T00:36:14.674Z,6.07
2017-09-23T00:38:42.817Z,6.47
2017-09-23T00:41:11.757Z,6.73
2017-09-23T00:43:39.923Z,6.70
2017-09-23T00:46:08.091Z,6.23
2017-09-23T00:48:37.154Z,7.23
2017-09-23T00:51:06.098Z,6.87
2017-09-23T00:53:35.001Z,5.57
2017-09-23T00:56:03.142Z,7.20
2017-09-23T00:58:31.419Z,5.70
2017-09-23T01:00:59.553Z,5.30
2017-09-23T01:03:27.682Z,7.57
2017-09-23T01:05:55.872Z,7.60
2017-09-23T01:08:24.003Z,4.80
2017-09-23T01:10:52.162Z,6.43
2017-09-23T01:13:20.317Z,7.00
2017-09-23T01:15:48.453Z,6.40
2017-09-23T01:18:16.775Z,6.23
2017-09-23T01:20:44.915Z,4.90
2017-09-23T01:23:13.855Z,6.03
2017-09-23T01:25:42.039Z,5.20
2017-09-23T01:28:10.205Z,6.23
2017-09-23T01:30:38.333Z,6.13
2017-09-23T01:33:06.482Z,6.60
2017-09-23T01:35:34.616Z,5.20
2017-09-23T01:38:02.774Z,3.97
2017-09-23T01:40:30.918Z,4.40
2017-09-23T01:42:59.835Z,5.00
2017-09-23T01:45:27.996Z,5.03
2017-09-23T01:47:56.138Z,4.73
2017-09-23T01:50:25.172Z,5.20
2017-09-23T01:52:53.306Z,6.20
2017-09-23T01:55:22.254Z,5.23
2017-09-23T01:57:50.395Z,4.60
2017-09-23T02:00:18.524Z,4.70
2017-09-23T02:02:47.463Z,5.83
2017-09-23T02:05:15.605Z,5.10
2017-09-23T02:07:44.743Z,4.17
2017-09-23T02:10:12.874Z,5.97
2017-09-23T02:12:41.771Z,6.30
2017-09-23T02:15:09.945Z,6.00
2017-09-23T02:17:38.090Z,5.87
2017-09-23T02:20:07.014Z,5.20
2017-09-23T02:22:35.173Z,5.00
2017-09-23T02:25:03.314Z,6.90
2017-09-23T02:27:31.465Z,4.70
2017-09-23T02:29:59.601Z,5.43
2017-09-23T02:32:27.767Z,5.27
2017-09-23T02:34:55.920Z,5.63
2017-09-23T02:37:24.937Z,5.50
2017-09-23T02:39:53.074Z,5.60
2017-09-23T02:42:21.971Z,5.03
2017-09-23T02:44:50.894Z,5.20
2017-09-23T02:47:19.021Z,4.80
2017-09-23T02:49:48.167Z,5.23
2017-09-23T02:52:16.307Z,4.30
2017-09-23T02:54:44.438Z,6.17
2017-09-23T02:57:12.706Z,6.00
2017-09-23T02:59:40.847Z,5.03
2017-09-23T03:02:08.965Z,6.10
2017-09-23T03:04:37.122Z,4.57
2017-09-23T03:07:05.272Z,4.97
2017-09-23T03:09:33.638Z,5.53
2017-09-23T03:12:01.768Z,5.60
2017-09-23T03:14:30.674Z,6.20
2017-09-23T03:16:58.862Z,4.93
2017-09-23T03:19:26.994Z,4.63
2017-09-23T03:21:55.892Z,5.03
2017-09-23T03:24:24.827Z,4.50
2017-09-23T03:26:52.955Z,5.20
2017-09-23T03:29:21.849Z,5.73
2017-09-23T03:31:50.774Z,4.33
2017-09-23T03:34:18.919Z,4.50
2017-09-23T03:36:47.081Z,5.10
2017-09-23T03:39:15.965Z,5.50
2017-09-23T03:41:44.857Z,4.47
2017-09-23T03:44:13.789Z,5.77
2017-09-23T03:46:41.929Z,3.60
2017-09-23T03:49:10.050Z,5.00
2017-09-23T03:51:38.198Z,4.20
2017-09-23T03:54:06.335Z,5.83
2017-09-23T03:56:35.372Z,4.60
2017-09-23T03:59:03.506Z,4.50
2017-09-23T04:01:31.657Z,4.80
2017-09-23T04:04:00.773Z,4.33
2017-09-23T04:06:28.905Z,4.33
2017-09-23T04:08:57.059Z,3.80
2017-09-23T04:11:25.235Z,4.90
2017-09-23T04:13:53.366Z,5.13
2017-09-23T04:16:21.767Z,4.57
2017-09-23T04:18:49.912Z,4.87
2017-09-23T04:21:18.044Z,4.93
2017-09-23T04:23:46.196Z,3.87
2017-09-23T04:26:14.333Z,5.43
2017-09-23T04:28:42.496Z,3.77
2017-09-23T04:31:10.637Z,3.00
2017-09-23T04:33:38.898Z,4.70
2017-09-23T04:36:07.040Z,3.63
2017-09-23T04:38:35.180Z,5.03
2017-09-23T04:41:03.330Z,4.20
2017-09-23T04:43:31.471Z,4.30
2017-09-23T04:45:59.731Z,4.57
2017-09-23T04:48:27.854Z,5.10
2017-09-23T04:50:56.778Z,4.23
2017-09-23T04:53:25.051Z,5.17
2017-09-23T04:55:53.195Z,3.60
2017-09-23T04:58:22.099Z,6.17
2017-09-23T05:00:50.270Z,5.47
2017-09-23T05:03:18.409Z,4.40
2017-09-23T05:05:47.358Z,4.67
2017-09-23T05:08:15.508Z,5.13
2017-09-23T05:10:43.779Z,3.23
2017-09-23T05:13:11.921Z,3.20
2017-09-23T05:15:40.844Z,4.70
2017-09-23T05:18:09.012Z,4.80
2017-09-23T05:20:37.872Z,5.47
2017-09-23T05:23:06.810Z,4.63
2017-09-23T05:25:34.971Z,4.57
2017-09-23T05:28:03.105Z,4.17
2017-09-23T05:30:32.035Z,4.97
2017-09-23T05:33:00.174Z,5.00
2017-09-23T05:35:29.094Z,4.53
2017-09-23T05:37:57.256Z,4.10
2017-09-23T05:40:25.550Z,4.60
2017-09-23T05:42:53.683Z,4.17
2017-09-23T05:45:22.583Z,6.10
2017-09-23T05:47:50.756Z,5.83
2017-09-23T05:50:19.144Z,4.60
2017-09-23T05:52:47.397Z,4.80
2017-09-23T05:55:16.324Z,4.50
2017-09-23T05:57:44.459Z,4.33
2017-09-23T06:00:13.393Z,5.10
2017-09-23T06:02:41.527Z,4.80
2017-09-23T06:05:09.675Z,3.50
2017-09-23T06:07:37.950Z,5.90
2017-09-23T06:10:06.078Z,4.07
2017-09-23T06:12:34.238Z,4.30
2017-09-23T06:15:02.395Z,3.70
2017-09-23T06:17:30.543Z,5.30
2017-09-23T06:19:59.488Z,4.00
2017-09-23T06:22:27.616Z,3.73
2017-09-23T06:24:56.566Z,4.40
2017-09-23T06:27:24.733Z,4.80
2017-09-23T06:29:52.889Z,5.20
2017-09-23T06:32:21.145Z,4.60
2017-09-23T06:34:49.306Z,4.13
2017-09-23T06:37:17.442Z,4.73
2017-09-23T06:39:45.598Z,4.73
2017-09-23T06:42:13.743Z,3.77
2017-09-23T06:44:41.898Z,4.30
2017-09-23T06:47:10.051Z,4.37
2017-09-23T06:49:39.183Z,3.90
2017-09-23T06:52:07.355Z,4.00
2017-09-23T06:54:35.481Z,4.23
2017-09-23T06:57:03.643Z,5.60
2017-09-23T06:59:31.793Z,4.83
2017-09-23T07:02:00.057Z,4.30
2017-09-23T07:07:02.649Z,4.10
2017-09-23T07:09:30.786Z,4.20
2017-09-23T07:11:58.940Z,4.20
2017-09-23T07:14:27.872Z,5.30
2017-09-23T07:16:56.011Z,3.83
2017-09-23T07:19:24.180Z,3.63
2017-09-23T07:21:52.328Z,4.37
2017-09-23T07:24:21.288Z,3.47
2017-09-23T07:26:49.451Z,3.73
2017-09-23T07:29:17.597Z,4.83
2017-09-23T07:31:45.783Z,4.33
2017-09-23T07:34:13.921Z,4.00
2017-09-23T07:36:42.846Z,4.77
2017-09-23T07:39:11.002Z,3.70
2017-09-23T07:41:39.138Z,3.87
2017-09-23T07:44:08.092Z,3.60
2017-09-23T07:46:36.231Z,4.73
2017-09-23T07:49:04.364Z,4.90
2017-09-23T07:51:32.634Z,4.00
2017-09-23T07:54:00.771Z,3.70
2017-09-23T07:56:28.905Z,3.70
2017-09-23T07:58:57.880Z,5.10
2017-09-23T08:01:26.785Z,4.07
2017-09-23T08:03:55.732Z,3.70
2017-09-23T08:06:23.874Z,5.20
2017-09-23T08:08:52.118Z,3.73
2017-09-23T08:11:20.310Z,3.40
2017-09-23T08:13:48.446Z,3.50
2017-09-23T08:16:16.591Z,3.23
2017-09-23T08:18:45.627Z,5.30
2017-09-23T08:21:14.526Z,5.20
2017-09-23T08:23:42.679Z,5.90
2017-09-23T08:26:11.621Z,5.27
2017-09-23T08:28:39.809Z,5.73
2017-09-23T08:31:08.180Z,5.90
2017-09-23T08:33:36.316Z,5.03
2017-09-23T08:36:05.260Z,4.80
2017-09-23T08:38:33.467Z,5.33
2017-09-23T08:41:01.622Z,6.37
2017-09-23T08:43:30.530Z,5.23
2017-09-23T08:45:58.693Z,7.10
2017-09-23T08:48:27.598Z,5.90
2017-09-23T08:50:55.801Z,6.47
2017-09-23T08:53:26.322Z,7.50
2017-09-23T08:55:54.459Z,8.13
2017-09-23T08:58:23.401Z,6.57
2017-09-23T09:00:51.543Z,5.93
2017-09-23T09:03:19.735Z,7.70
2017-09-23T09:05:47.890Z,7.83
2017-09-23T09:08:16.080Z,8.60
2017-09-23T09:10:44.217Z,8.90
2017-09-23T09:13:12.358Z,7.77
2017-09-23T09:15:40.526Z,9.33
2017-09-23T09:18:08.674Z,8.20
2017-09-23T09:20:36.880Z,9.10
2017-09-23T09:23:05.797Z,8.90
2017-09-23T09:25:33.928Z,9.37
2017-09-23T09:28:02.096Z,6.60
2017-09-23T09:30:30.227Z,10.40
2017-09-23T09:32:58.427Z,8.70
2017-09-23T09:35:26.566Z,10.20
2017-09-23T09:37:54.718Z,10.13
2017-09-23T09:40:23.673Z,11.07
2017-09-23T09:42:52.286Z,9.20
2017-09-23T09:45:21.331Z,9.30
2017-09-23T09:47:49.488Z,10.23
2017-09-23T09:50:17.661Z,10.17
2017-09-23T09:52:45.849Z,10.93
2017-09-23T09:55:14.226Z,10.20
2017-09-23T09:57:42.413Z,8.17
2017-09-23T10:00:10.558Z,10.07
2017-09-23T10:02:38.708Z,10.60
2017-09-23T10:05:06.877Z,8.13
2017-09-23T10:07:35.062Z,10.80
2017-09-23T10:10:03.258Z,9.07
2017-09-23T10:12:47.305Z,7.83
2017-09-23T10:15:16.198Z,8.80
2017-09-23T10:17:44.808Z,10.13
2017-09-23T10:20:13.714Z,8.30
2017-09-23T10:22:42.657Z,8.40
2017-09-23T10:25:10.820Z,10.30
2017-09-23T10:27:39.106Z,7.80
2017-09-23T10:30:07.271Z,11.33
2017-09-23T10:32:35.526Z,10.53
2017-09-23T10:35:03.699Z,7.37
2017-09-23T10:37:31.843Z,7.37
2017-09-23T10:40:00.019Z,7.60
2017-09-23T10:42:28.319Z,6.70
2017-09-23T10:44:56.468Z,5.80
2017-09-23T10:47:25.383Z,7.80
2017-09-23T10:49:53.517Z,8.30
2017-09-23T10:52:22.453Z,7.07
2017-09-23T10:54:50.600Z,9.00
2017-09-23T10:57:18.796Z,12.57
2017-09-23T10:59:46.951Z,6.50
2017-09-23T11:02:15.099Z,8.60
2017-09-23T11:04:43.273Z,9.20
2017-09-23T11:07:11.441Z,7.80
2017-09-23T11:09:39.717Z,6.83
2017-09-23T11:12:08.014Z,7.40
2017-09-23T11:14:36.154Z,7.27
2017-09-23T11:17:05.093Z,7.10
2017-09-23T11:19:33.235Z,10.20
2017-09-23T11:22:01.507Z,4.50
2017-09-23T11:24:29.646Z,4.67
2017-09-23T11:26:58.559Z,8.90
2017-09-23T11:29:26.752Z,8.20
2017-09-23T11:31:54.892Z,6.60
2017-09-23T11:34:23.835Z,7.00
2017-09-23T11:36:51.970Z,9.57
2017-09-23T11:39:20.148Z,8.47
2017-09-23T11:41:48.304Z,6.87
2017-09-23T11:44:16.603Z,7.53
2017-09-23T11:46:44.755Z,7.47
2017-09-23T11:49:12.912Z,8.77
2017-09-23T11:51:41.860Z,8.10
2017-09-23T11:54:09.998Z,4.23
2017-09-23T11:56:38.185Z,6.87
2017-09-23T11:59:06.330Z,7.77
2017-09-23T12:01:34.634Z,8.93
2017-09-23T12:04:02.776Z,6.27
2017-09-23T12:06:30.926Z,6.10
2017-09-23T12:08:59.130Z,7.03
2017-09-23T12:11:27.271Z,6.30
2017-09-23T12:13:56.323Z,6.83
2017-09-23T12:16:24.490Z,3.93
2017-09-23T12:18:52.634Z,6.00
2017-09-23T12:21:20.827Z,5.73
2017-09-23T12:23:48.972Z,5.13
2017-09-23T12:26:17.914Z,6.23
2017-09-23T12:28:46.063Z,5.37
2017-09-23T12:31:14.220Z,4.43
2017-09-23T12:33:42.392Z,5.73
2017-09-23T12:36:10.540Z,3.60
2017-09-23T12:38:39.477Z,4.97
2017-09-23T12:41:07.638Z,5.63
2017-09-23T12:43:35.776Z,6.63
2017-09-23T12:46:04.716Z,5.67
2017-09-23T12:48:32.849Z,5.03
2017-09-23T12:51:01.042Z,7.20
2017-09-23T12:53:29.172Z,6.23
2017-09-23T12:55:58.070Z,7.63
2017-09-23T12:58:27.026Z,6.97
2017-09-23T13:00:55.158Z,5.80
2017-09-23T13:03:23.347Z,7.27
2017-09-23T13:05:51.480Z,5.80
2017-09-23T13:08:20.378Z,6.10
2017-09-23T13:10:48.551Z,5.00
2017-09-23T13:13:16.683Z,7.10
2017-09-23T13:15:44.829Z,7.70
2017-09-23T13:18:13.037Z,9.93
2017-09-23T13:20:41.962Z,8.77
2017-09-23T13:23:10.141Z,6.97
2017-09-23T13:25:38.278Z,6.73
2017-09-23T13:28:07.210Z,4.93
2017-09-23T13:30:35.394Z,5.20
2017-09-23T13:33:03.532Z,4.33
2017-09-23T13:35:31.802Z,9.03
2017-09-23T13:37:59.946Z,7.77
2017-09-23T13:40:28.083Z,5.33
2017-09-23T13:42:56.250Z,7.93
2017-09-23T13:45:24.413Z,5.70
2017-09-23T13:47:52.686Z,6.23
2017-09-23T13:50:20.871Z,11.40
2017-09-23T13:52:49.003Z,10.87
2017-09-23T13:55:17.305Z,9.20
2017-09-23T13:57:45.536Z,8.53
2017-09-23T14:00:14.476Z,5.53
2017-09-23T14:02:42.614Z,6.93
2017-09-23T14:05:10.760Z,7.17
2017-09-23T14:07:39.941Z,5.30
2017-09-23T14:10:08.096Z,6.17
2017-09-23T14:12:36.266Z,6.47
2017-09-23T14:15:04.403Z,4.97
2017-09-23T14:17:33.463Z,4.80
2017-09-23T14:20:01.604Z,7.40
2017-09-23T14:22:29.745Z,4.80
2017-09-23T14:24:57.910Z,6.97
2017-09-23T14:27:26.062Z,9.30
2017-09-23T14:29:55.015Z,7.80
2017-09-23T14:32:24.675Z,8.23
2017-09-23T14:34:52.857Z,6.63
2017-09-23T14:37:21.023Z,9.30
2017-09-23T14:39:49.212Z,11.43
2017-09-23T14:42:17.387Z,14.10
2017-09-23T14:44:45.548Z,12.07
2017-09-23T14:47:13.713Z,7.43
2017-09-23T14:49:41.844Z,5.40
2017-09-23T14:52:10.127Z,14.10
2017-09-23T14:54:39.049Z,9.10
2017-09-23T14:57:07.201Z,11.43
2017-09-23T14:59:36.210Z,8.97
2017-09-23T15:02:04.397Z,12.33
2017-09-23T15:04:32.627Z,15.10
2017-09-23T15:07:01.544Z,13.80
2017-09-23T15:09:29.760Z,13.83
2017-09-23T15:11:57.924Z,13.63
2017-09-23T15:14:26.078Z,13.20
2017-09-23T15:16:54.256Z,15.93
2017-09-23T15:19:22.423Z,13.83
2017-09-23T15:21:50.599Z,11.43
2017-09-23T15:24:18.745Z,14.07
2017-09-23T15:26:46.943Z,14.93
2017-09-23T15:29:15.117Z,14.30
2017-09-23T15:31:43.272Z,11.33
2017-09-23T15:34:11.441Z,12.40
2017-09-23T15:36:39.590Z,14.50
2017-09-23T15:39:08.548Z,15.17
2017-09-23T15:41:36.716Z,10.30
2017-09-23T15:44:04.878Z,12.00
2017-09-23T15:46:33.056Z,15.23
2017-09-23T15:49:01.205Z,13.33
2017-09-23T15:51:29.481Z,14.63
2017-09-23T15:53:57.654Z,17.07
2017-09-23T15:56:25.806Z,13.57
2017-09-23T15:58:53.985Z,13.27
2017-09-23T16:01:22.140Z,17.13
2017-09-23T16:03:50.419Z,16.27
2017-09-23T16:06:18.579Z,13.83
2017-09-23T16:08:47.500Z,14.97
2017-09-23T16:11:15.683Z,13.50
2017-09-23T16:13:43.826Z,11.67
2017-09-23T16:16:12.082Z,8.33
2017-09-23T16:18:41.006Z,12.57
2017-09-23T16:21:09.166Z,16.03
2017-09-23T16:23:37.333Z,15.87
2017-09-23T16:26:05.483Z,10.40
2017-09-23T16:28:34.548Z,10.20
2017-09-23T16:31:02.740Z,17.17
2017-09-23T16:33:31.318Z,18.97
2017-09-23T16:35:59.479Z,12.10
2017-09-23T16:38:27.630Z,21.50
2017-09-23T16:40:55.938Z,13.17
2017-09-23T16:43:24.078Z,14.70
2017-09-23T16:45:52.238Z,17.40
2017-09-23T16:48:20.424Z,18.37
2017-09-23T16:50:48.573Z,15.40
2017-09-23T16:53:16.767Z,12.37
2017-09-23T16:55:45.989Z,11.27
2017-09-23T16:58:14.137Z,13.10
2017-09-23T17:00:42.347Z,12.40
2017-09-23T17:03:10.489Z,11.23
2017-09-23T17:05:39.461Z,11.33
2017-09-23T17:08:07.674Z,10.97
2017-09-23T17:10:35.829Z,10.00
2017-09-23T17:13:04.003Z,11.00
2017-09-23T17:15:32.161Z,10.97
2017-09-23T17:18:00.447Z,16.77
2017-09-23T17:20:28.610Z,13.27
2017-09-23T17:22:57.000Z,11.30
2017-09-23T17:25:25.171Z,12.90
2017-09-23T17:27:53.348Z,10.50
2017-09-23T17:30:21.542Z,11.43
2017-09-23T17:32:50.479Z,12.10
2017-09-23T17:35:18.669Z,11.43
2017-09-23T17:37:46.965Z,12.00
2017-09-23T17:40:15.117Z,13.23
2017-09-23T17:42:43.303Z,12.07
2017-09-23T17:45:11.441Z,11.87
2017-09-23T17:47:39.587Z,10.30
2017-09-23T17:50:07.781Z,11.83
2017-09-23T17:52:35.942Z,10.90
2017-09-23T17:55:04.139Z,10.60
2017-09-23T17:57:32.289Z,10.80
2017-09-23T18:00:00.440Z,10.50
2017-09-23T18:02:29.378Z,12.23
2017-09-23T18:04:57.544Z,10.40
2017-09-23T18:07:25.721Z,9.83
2017-09-23T18:09:54.129Z,11.37
2017-09-23T18:12:22.426Z,9.93
2017-09-23T18:14:50.643Z,10.80
2017-09-23T18:17:18.949Z,11.50
2017-09-23T18:19:47.893Z,10.47
2017-09-23T18:22:16.047Z,10.37
2017-09-23T18:24:44.251Z,11.17
2017-09-23T18:27:12.411Z,10.70
2017-09-23T18:29:40.604Z,12.33
2017-09-23T18:32:08.752Z,13.47
2017-09-23T18:34:36.910Z,12.30
2017-09-23T18:37:05.093Z,12.13
2017-09-23T18:39:33.252Z,11.10
2017-09-23T18:42:01.544Z,12.17
2017-09-23T18:44:29.791Z,10.80
2017-09-23T18:46:58.732Z,12.50
2017-09-23T18:49:26.907Z,11.80
2017-09-23T18:51:55.416Z,12.00
2017-09-23T18:54:23.682Z,13.30
2017-09-23T18:56:52.598Z,11.23
2017-09-23T18:59:20.833Z,12.97
2017-09-23T19:01:49.347Z,11.87
2017-09-23T19:04:17.762Z,11.43
2017-09-23T19:07:05.465Z,10.93
2017-09-23T19:09:35.194Z,12.10
2017-09-23T19:12:18.244Z,12.60
2017-09-23T19:15:00.859Z,13.73
2017-09-23T19:17:30.821Z,11.60
2017-09-23T19:20:00.428Z,18.00
2017-09-23T19:22:29.175Z,14.20
2017-09-23T19:24:57.999Z,14.17
2017-09-23T19:27:26.807Z,15.30
2017-09-23T19:29:56.451Z,11.70
2017-09-23T19:32:26.035Z,14.70
2017-09-23T19:34:55.291Z,14.00
2017-09-23T19:37:24.207Z,15.30
2017-09-23T19:39:53.252Z,10.20
2017-09-23T19:42:22.611Z,15.10
2017-09-23T19:44:51.284Z,14.20
2017-09-23T19:47:31.850Z,15.90
2017-09-23T19:50:00.758Z,13.50
2017-09-23T19:52:29.934Z,14.97
2017-09-23T19:54:59.683Z,16.07
2017-09-23T19:57:29.290Z,14.40
2017-09-23T20:00:08.582Z,17.30
2017-09-23T20:02:38.530Z,17.50
2017-09-23T20:05:08.166Z,16.00
2017-09-23T20:07:36.983Z,13.70
2017-09-23T20:10:07.224Z,16.93
2017-09-23T20:12:36.258Z,17.27
2017-09-23T20:15:05.237Z,15.43
2017-09-23T20:17:34.202Z,15.43
2017-09-23T20:20:02.348Z,18.00
2017-09-23T20:22:31.249Z,16.23
2017-09-23T20:24:59.818Z,16.00
2017-09-23T20:27:28.289Z,17.40
2017-09-23T20:29:56.463Z,15.73
2017-09-23T20:32:24.624Z,18.43
2017-09-23T20:34:52.818Z,15.70
2017-09-23T20:37:20.984Z,20.07
2017-09-23T20:39:49.227Z,17.90
2017-09-23T20:42:18.156Z,16.70
2017-09-23T20:44:46.315Z,18.20
2017-09-23T20:47:14.491Z,18.17
2017-09-23T20:49:42.644Z,19.50
2017-09-23T20:52:10.831Z,18.77
2017-09-23T20:54:38.997Z,19.47
2017-09-23T20:57:07.206Z,19.20
2017-09-23T20:59:35.361Z,20.57
2017-09-23T21:02:03.502Z,19.73
2017-09-23T21:04:32.494Z,15.30
2017-09-23T21:07:00.637Z,19.00
2017-09-23T21:09:28.897Z,16.27
2017-09-23T21:11:57.033Z,18.70
2017-09-23T21:14:25.181Z,19.70
2017-09-23T21:16:53.354Z,17.77
2017-09-23T21:19:21.515Z,17.53
2017-09-23T21:21:50.450Z,17.30
2017-09-23T21:24:18.610Z,18.07
2017-09-23T21:26:46.856Z,17.90
2017-09-23T21:29:15.018Z,16.70
2017-09-23T21:31:43.945Z,19.30
2017-09-23T21:34:12.131Z,17.73
2017-09-23T21:36:40.266Z,16.70
2017-09-23T21:39:08.457Z,16.87
2017-09-23T21:41:36.597Z,17.07
2017-09-23T21:44:05.562Z,15.40
2017-09-23T21:46:33.705Z,12.20
2017-09-23T21:49:01.856Z,14.73
2017-09-23T21:51:30.054Z,18.33
2017-09-23T21:53:58.205Z,16.70
2017-09-23T21:56:26.402Z,16.00
2017-09-23T21:58:54.545Z,18.37
2017-09-23T22:01:22.693Z,17.23
2017-09-23T22:03:51.630Z,15.00
2017-09-23T22:06:19.849Z,18.30
2017-09-23T22:08:48.880Z,13.80
2017-09-23T22:11:17.058Z,13.63
2017-09-23T22:13:45.212Z,15.60
2017-09-23T22:16:13.403Z,13.43
2017-09-23T22:18:41.568Z,17.10
2017-09-23T22:21:09.857Z,18.70
2017-09-23T22:23:37.990Z,18.27
2017-09-23T22:26:06.147Z,16.83
2017-09-23T22:28:35.087Z,15.20
2017-09-23T22:31:03.308Z,17.33
2017-09-23T22:33:32.350Z,17.53
2017-09-23T22:36:00.513Z,15.90
2017-09-23T22:38:28.649Z,18.90
2017-09-23T22:40:57.583Z,16.00
2017-09-23T22:43:25.717Z,12.70
2017-09-23T22:45:54.655Z,17.43
2017-09-23T22:48:22.811Z,13.27
2017-09-23T22:50:50.979Z,11.67
2017-09-23T22:53:19.132Z,13.10
2017-09-23T22:55:47.304Z,16.50
2017-09-23T22:58:15.450Z,14.10
2017-09-23T23:00:43.630Z,18.10
2017-09-23T23:03:11.783Z,18.97
2017-09-23T23:05:39.922Z,13.73
2017-09-23T23:08:08.083Z,13.60
2017-09-23T23:10:37.030Z,15.50
2017-09-23T23:13:05.989Z,11.97
2017-09-23T23:15:34.140Z,16.03
2017-09-23T23:18:02.315Z,15.10
2017-09-23T23:20:30.482Z,15.03
2017-09-23T23:22:58.759Z,15.40
2017-09-23T23:25:26.898Z,13.73
2017-09-23T23:27:55.039Z,12.13
2017-09-23T23:30:23.198Z,15.70
2017-09-23T23:32:52.051Z,19.13
2017-09-23T23:35:20.213Z,17.90
2017-09-23T23:37:48.351Z,14.10
2017-09-23T23:40:17.103Z,16.50
2017-09-23T23:42:45.238Z,19.07
2017-09-23T23:45:13.403Z,15.70
2017-09-23T23:47:41.563Z,15.37
2017-09-23T23:50:10.772Z,15.57
2017-09-23T23:52:38.943Z,13.17
2017-09-23T23:55:07.103Z,17.10
2017-09-23T23:57:36.042Z,13.60
